sensor_id;sensor_type;location;lat;lon;timestamp;pressure;altitude;pressure_sealevel;temperature;humidity
43420;BME280;29017;51.514;-0.178;2023-12-22T00:02:23;100681.66;;;12.25;67.05
43420;BME280;29017;51.514;-0.178;2023-12-22T00:04:52;100694.84;;;12.25;67.01
43420;BME280;29017;51.514;-0.178;2023-12-22T00:07:19;100679.00;;;12.25;67.25
43420;BME280;29017;51.514;-0.178;2023-12-22T00:09:47;100688.09;;;12.23;67.23
43420;BME280;29017;51.514;-0.178;2023-12-22T00:12:14;100688.25;;;12.21;67.03
43420;BME280;29017;51.514;-0.178;2023-12-22T00:14:41;100683.81;;;12.22;67.45
43420;BME280;29017;51.514;-0.178;2023-12-22T00:17:08;100685.78;;;12.20;67.38
43420;BME280;29017;51.514;-0.178;2023-12-22T00:19:35;100684.78;;;12.21;67.84
43420;BME280;29017;51.514;-0.178;2023-12-22T00:22:02;100683.13;;;12.20;67.88
43420;BME280;29017;51.514;-0.178;2023-12-22T00:24:30;100681.50;;;12.19;68.09
43420;BME280;29017;51.514;-0.178;2023-12-22T00:26:57;100679.03;;;12.17;68.61
43420;BME280;29017;51.514;-0.178;2023-12-22T00:29:24;100674.41;;;12.19;68.57
43420;BME280;29017;51.514;-0.178;2023-12-22T00:31:50;100673.59;;;12.19;69.31
43420;BME280;29017;51.514;-0.178;2023-12-22T00:34:17;100671.75;;;12.19;68.76
43420;BME280;29017;51.514;-0.178;2023-12-22T00:36:46;100672.59;;;12.20;68.56
43420;BME280;29017;51.514;-0.178;2023-12-22T00:39:13;100675.41;;;12.18;69.14
43420;BME280;29017;51.514;-0.178;2023-12-22T00:41:40;100679.03;;;12.17;69.17
43420;BME280;29017;51.514;-0.178;2023-12-22T00:44:06;100688.41;;;12.20;69.52
43420;BME280;29017;51.514;-0.178;2023-12-22T00:46:33;100680.69;;;12.18;69.61
43420;BME280;29017;51.514;-0.178;2023-12-22T00:49:00;100690.22;;;12.19;70.30
43420;BME280;29017;51.514;-0.178;2023-12-22T00:51:27;100693.53;;;12.21;70.39
43420;BME280;29017;51.514;-0.178;2023-12-22T00:53:56;100694.69;;;12.19;69.82
43420;BME280;29017;51.514;-0.178;2023-12-22T00:56:23;100698.97;;;12.20;70.70
43420;BME280;29017;51.514;-0.178;2023-12-22T00:58:49;100707.69;;;12.20;70.74
43420;BME280;29017;51.514;-0.178;2023-12-22T01:01:27;100704.09;;;12.21;70.74
43420;BME280;29017;51.514;-0.178;2023-12-22T01:03:54;100707.38;;;12.23;70.90
43420;BME280;29017;51.514;-0.178;2023-12-22T01:06:21;100700.94;;;12.26;71.78
43420;BME280;29017;51.514;-0.178;2023-12-22T01:08:52;100703.25;;;12.29;72.74
43420;BME280;29017;51.514;-0.178;2023-12-22T01:11:19;100714.63;;;12.29;72.27
43420;BME280;29017;51.514;-0.178;2023-12-22T01:13:46;100710.00;;;12.31;72.00
43420;BME280;29017;51.514;-0.178;2023-12-22T01:16:13;100701.09;;;12.32;71.99
43420;BME280;29017;51.514;-0.178;2023-12-22T01:18:45;100691.19;;;12.34;71.92
43420;BME280;29017;51.514;-0.178;2023-12-22T01:21:16;100697.13;;;12.36;72.61
43420;BME280;29017;51.514;-0.178;2023-12-22T01:23:42;100693.50;;;12.37;72.80
43420;BME280;29017;51.514;-0.178;2023-12-22T01:26:09;100696.31;;;12.36;73.08
43420;BME280;29017;51.514;-0.178;2023-12-22T01:28:37;100705.06;;;12.36;74.09
43420;BME280;29017;51.514;-0.178;2023-12-22T01:31:10;100709.00;;;12.40;74.78
43420;BME280;29017;51.514;-0.178;2023-12-22T01:33:37;100706.34;;;12.40;75.06
43420;BME280;29017;51.514;-0.178;2023-12-22T01:36:04;100702.56;;;12.43;75.29
43420;BME280;29017;51.514;-0.178;2023-12-22T01:38:31;100709.16;;;12.47;76.01
43420;BME280;29017;51.514;-0.178;2023-12-22T01:40:58;100702.06;;;12.48;76.72
43420;BME280;29017;51.514;-0.178;2023-12-22T01:43:24;100701.56;;;12.52;76.88
43420;BME280;29017;51.514;-0.178;2023-12-22T01:45:52;100690.84;;;12.54;77.03
43420;BME280;29017;51.514;-0.178;2023-12-22T01:48:21;100695.63;;;12.58;78.41
43420;BME280;29017;51.514;-0.178;2023-12-22T01:50:52;100698.06;;;12.60;78.27
43420;BME280;29017;51.514;-0.178;2023-12-22T01:53:20;100705.66;;;12.63;78.51
43420;BME280;29017;51.514;-0.178;2023-12-22T01:55:48;100698.72;;;12.62;78.87
43420;BME280;29017;51.514;-0.178;2023-12-22T01:58:15;100694.94;;;12.64;79.64
43420;BME280;29017;51.514;-0.178;2023-12-22T02:00:42;100700.69;;;12.60;79.48
43420;BME280;29017;51.514;-0.178;2023-12-22T02:03:08;100702.53;;;12.59;79.77
43420;BME280;29017;51.514;-0.178;2023-12-22T02:05:35;100712.91;;;12.61;80.80
43420;BME280;29017;51.514;-0.178;2023-12-22T02:08:03;100723.97;;;12.64;80.76
43420;BME280;29017;51.514;-0.178;2023-12-22T02:10:30;100716.84;;;12.65;81.01
43420;BME280;29017;51.514;-0.178;2023-12-22T02:12:57;100721.97;;;12.66;81.65
43420;BME280;29017;51.514;-0.178;2023-12-22T02:15:24;100712.41;;;12.65;82.25
43420;BME280;29017;51.514;-0.178;2023-12-22T02:17:53;100729.75;;;12.60;83.01
43420;BME280;29017;51.514;-0.178;2023-12-22T02:20:21;100732.88;;;12.63;83.48
43420;BME280;29017;51.514;-0.178;2023-12-22T02:22:52;100730.88;;;12.65;84.24
43420;BME280;29017;51.514;-0.178;2023-12-22T02:25:19;100738.63;;;12.67;86.84
43420;BME280;29017;51.514;-0.178;2023-12-22T02:30:14;100737.34;;;12.63;89.32
43420;BME280;29017;51.514;-0.178;2023-12-22T02:32:48;100731.75;;;12.58;90.64
43420;BME280;29017;51.514;-0.178;2023-12-22T02:35:16;100734.69;;;12.55;92.15
43420;BME280;29017;51.514;-0.178;2023-12-22T02:37:51;100726.13;;;12.53;92.34
43420;BME280;29017;51.514;-0.178;2023-12-22T02:40:19;100709.00;;;12.49;93.10
43420;BME280;29017;51.514;-0.178;2023-12-22T02:42:46;100706.03;;;12.43;94.16
43420;BME280;29017;51.514;-0.178;2023-12-22T02:45:15;100706.69;;;12.37;94.89
43420;BME280;29017;51.514;-0.178;2023-12-22T02:47:42;100705.56;;;12.32;95.18
43420;BME280;29017;51.514;-0.178;2023-12-22T02:50:09;100702.44;;;12.28;95.64
43420;BME280;29017;51.514;-0.178;2023-12-22T02:52:36;100707.53;;;12.22;95.91
43420;BME280;29017;51.514;-0.178;2023-12-22T02:55:03;100696.84;;;12.23;96.52
43420;BME280;29017;51.514;-0.178;2023-12-22T02:57:30;100692.22;;;12.17;96.83
43420;BME280;29017;51.514;-0.178;2023-12-22T02:59:58;100671.28;;;12.16;96.67
43420;BME280;29017;51.514;-0.178;2023-12-22T03:02:26;100669.97;;;12.12;96.67
43420;BME280;29017;51.514;-0.178;2023-12-22T03:04:53;100660.25;;;12.12;97.69
43420;BME280;29017;51.514;-0.178;2023-12-22T03:07:20;100664.72;;;12.04;96.94
43420;BME280;29017;51.514;-0.178;2023-12-22T03:09:47;100656.97;;;12.02;97.19
43420;BME280;29017;51.514;-0.178;2023-12-22T03:12:14;100655.97;;;12.03;97.88
43420;BME280;29017;51.514;-0.178;2023-12-22T03:14:40;100657.94;;;12.01;98.27
43420;BME280;29017;51.514;-0.178;2023-12-22T03:17:07;100658.94;;;12.00;98.47
43420;BME280;29017;51.514;-0.178;2023-12-22T03:19:34;100649.22;;;12.00;98.60
43420;BME280;29017;51.514;-0.178;2023-12-22T03:22:01;100640.66;;;11.90;98.32
43420;BME280;29017;51.514;-0.178;2023-12-22T03:24:28;100647.22;;;11.94;98.58
43420;BME280;29017;51.514;-0.178;2023-12-22T03:26:55;100634.88;;;11.95;98.91
43420;BME280;29017;51.514;-0.178;2023-12-22T03:29:22;100629.44;;;11.96;98.46
43420;BME280;29017;51.514;-0.178;2023-12-22T03:31:49;100623.00;;;11.99;98.45
43420;BME280;29017;51.514;-0.178;2023-12-22T03:34:16;100620.69;;;12.04;99.51
43420;BME280;29017;51.514;-0.178;2023-12-22T03:36:44;100623.81;;;12.08;98.72
43420;BME280;29017;51.514;-0.178;2023-12-22T03:39:16;100624.00;;;12.06;97.58
43420;BME280;29017;51.514;-0.178;2023-12-22T03:41:43;100616.41;;;12.03;96.77
43420;BME280;29017;51.514;-0.178;2023-12-22T03:44:10;100621.84;;;12.02;97.07
43420;BME280;29017;51.514;-0.178;2023-12-22T03:46:36;100609.34;;;12.04;97.32
43420;BME280;29017;51.514;-0.178;2023-12-22T03:49:03;100605.88;;;12.03;97.08
43420;BME280;29017;51.514;-0.178;2023-12-22T03:51:30;100608.31;;;12.05;96.86
43420;BME280;29017;51.514;-0.178;2023-12-22T03:53:57;100595.13;;;12.05;96.65
43420;BME280;29017;51.514;-0.178;2023-12-22T03:56:24;100596.94;;;12.04;96.47
43420;BME280;29017;51.514;-0.178;2023-12-22T03:58:51;100597.78;;;12.05;96.28
43420;BME280;29017;51.514;-0.178;2023-12-22T04:01:18;100590.69;;;12.05;96.24
43420;BME280;29017;51.514;-0.178;2023-12-22T04:03:46;100600.25;;;12.06;96.14
43420;BME280;29017;51.514;-0.178;2023-12-22T04:06:15;100601.56;;;12.10;96.02
43420;BME280;29017;51.514;-0.178;2023-12-22T04:08:42;100589.88;;;12.13;96.21
43420;BME280;29017;51.514;-0.178;2023-12-22T04:11:09;100583.59;;;12.14;95.69
43420;BME280;29017;51.514;-0.178;2023-12-22T04:13:35;100592.97;;;12.16;95.13
43420;BME280;29017;51.514;-0.178;2023-12-22T04:16:02;100586.22;;;12.22;95.28
43420;BME280;29017;51.514;-0.178;2023-12-22T04:18:31;100595.56;;;12.24;95.36
43420;BME280;29017;51.514;-0.178;2023-12-22T04:20:59;100595.25;;;12.27;95.13
43420;BME280;29017;51.514;-0.178;2023-12-22T04:23:26;100600.38;;;12.29;95.30
43420;BME280;29017;51.514;-0.178;2023-12-22T04:25:52;100592.78;;;12.34;96.15
43420;BME280;29017;51.514;-0.178;2023-12-22T04:28:20;100592.59;;;12.35;95.98
43420;BME280;29017;51.514;-0.178;2023-12-22T04:30:46;100587.66;;;12.32;95.59
43420;BME280;29017;51.514;-0.178;2023-12-22T04:33:14;100595.56;;;12.32;95.75
43420;BME280;29017;51.514;-0.178;2023-12-22T04:35:44;100595.22;;;12.35;95.43
43420;BME280;29017;51.514;-0.178;2023-12-22T04:38:11;100596.72;;;12.30;95.86
43420;BME280;29017;51.514;-0.178;2023-12-22T04:40:38;100599.66;;;12.35;96.11
43420;BME280;29017;51.514;-0.178;2023-12-22T04:43:04;100599.03;;;12.33;95.93
43420;BME280;29017;51.514;-0.178;2023-12-22T04:45:31;100586.47;;;12.35;95.98
43420;BME280;29017;51.514;-0.178;2023-12-22T04:47:58;100575.41;;;12.39;96.47
43420;BME280;29017;51.514;-0.178;2023-12-22T04:50:25;100584.00;;;12.41;96.22
43420;BME280;29017;51.514;-0.178;2023-12-22T04:52:52;100591.09;;;12.41;95.87
43420;BME280;29017;51.514;-0.178;2023-12-22T04:55:22;100594.53;;;12.41;96.10
43420;BME280;29017;51.514;-0.178;2023-12-22T04:57:49;100591.56;;;12.44;95.93
43420;BME280;29017;51.514;-0.178;2023-12-22T05:00:16;100587.09;;;12.45;95.61
43420;BME280;29017;51.514;-0.178;2023-12-22T05:02:43;100579.84;;;12.47;95.55
43420;BME280;29017;51.514;-0.178;2023-12-22T05:05:10;100574.75;;;12.46;95.63
43420;BME280;29017;51.514;-0.178;2023-12-22T05:07:38;100570.13;;;12.48;95.41
43420;BME280;29017;51.514;-0.178;2023-12-22T05:10:07;100566.31;;;12.50;95.17
43420;BME280;29017;51.514;-0.178;2023-12-22T05:12:33;100560.84;;;12.52;95.20
43420;BME280;29017;51.514;-0.178;2023-12-22T05:15:01;100567.13;;;12.51;94.78
43420;BME280;29017;51.514;-0.178;2023-12-22T05:17:28;100560.69;;;12.53;94.38
43420;BME280;29017;51.514;-0.178;2023-12-22T05:19:55;100565.97;;;12.53;94.63
43420;BME280;29017;51.514;-0.178;2023-12-22T05:22:21;100565.97;;;12.53;94.40
43420;BME280;29017;51.514;-0.178;2023-12-22T05:24:48;100576.69;;;12.52;94.15
43420;BME280;29017;51.514;-0.178;2023-12-22T05:27:15;100579.69;;;12.49;94.18
43420;BME280;29017;51.514;-0.178;2023-12-22T05:29:42;100583.31;;;12.48;93.82
43420;BME280;29017;51.514;-0.178;2023-12-22T05:32:09;100582.81;;;12.52;93.84
43420;BME280;29017;51.514;-0.178;2023-12-22T05:34:36;100590.19;;;12.57;94.55
43420;BME280;29017;51.514;-0.178;2023-12-22T05:37:03;100586.56;;;12.58;93.78
43420;BME280;29017;51.514;-0.178;2023-12-22T05:39:30;100589.03;;;12.59;93.94
43420;BME280;29017;51.514;-0.178;2023-12-22T05:41:57;100595.63;;;12.63;94.49
43420;BME280;29017;51.514;-0.178;2023-12-22T05:44:29;100601.22;;;12.68;94.94
43420;BME280;29017;51.514;-0.178;2023-12-22T05:46:57;100609.47;;;12.65;95.54
43420;BME280;29017;51.514;-0.178;2023-12-22T05:49:24;100612.91;;;12.66;96.19
43420;BME280;29017;51.514;-0.178;2023-12-22T05:51:52;100606.00;;;12.65;97.47
43420;BME280;29017;51.514;-0.178;2023-12-22T05:54:19;100607.84;;;12.64;98.40
43420;BME280;29017;51.514;-0.178;2023-12-22T05:56:46;100583.78;;;12.59;98.52
43420;BME280;29017;51.514;-0.178;2023-12-22T05:59:13;100590.03;;;12.58;99.09
43420;BME280;29017;51.514;-0.178;2023-12-22T06:01:40;100602.41;;;12.58;99.42
43420;BME280;29017;51.514;-0.178;2023-12-22T06:04:07;100603.56;;;12.55;99.74
43420;BME280;29017;51.514;-0.178;2023-12-22T06:06:34;100598.47;;;12.54;99.77
43420;BME280;29017;51.514;-0.178;2023-12-22T06:09:00;100592.19;;;12.55;100.00
43420;BME280;29017;51.514;-0.178;2023-12-22T06:11:27;100599.09;;;12.56;100.00
43420;BME280;29017;51.514;-0.178;2023-12-22T06:13:54;100597.66;;;12.53;100.00
43420;BME280;29017;51.514;-0.178;2023-12-22T06:16:21;100596.97;;;12.51;100.00
43420;BME280;29017;51.514;-0.178;2023-12-22T06:18:48;100596.16;;;12.51;100.00
43420;BME280;29017;51.514;-0.178;2023-12-22T06:21:15;100588.44;;;12.49;100.00
43420;BME280;29017;51.514;-0.178;2023-12-22T06:23:42;100593.22;;;12.46;100.00
43420;BME280;29017;51.514;-0.178;2023-12-22T06:26:12;100597.66;;;12.45;100.00
43420;BME280;29017;51.514;-0.178;2023-12-22T06:28:39;100585.47;;;12.44;100.00
43420;BME280;29017;51.514;-0.178;2023-12-22T06:31:07;100590.91;;;12.42;100.00
43420;BME280;29017;51.514;-0.178;2023-12-22T06:33:35;100592.72;;;12.42;100.00
43420;BME280;29017;51.514;-0.178;2023-12-22T06:36:02;100586.47;;;12.43;100.00
43420;BME280;29017;51.514;-0.178;2023-12-22T06:38:29;100600.81;;;12.40;100.00
43420;BME280;29017;51.514;-0.178;2023-12-22T06:40:57;100596.53;;;12.39;100.00
43420;BME280;29017;51.514;-0.178;2023-12-22T06:43:24;100595.06;;;12.37;100.00
43420;BME280;29017;51.514;-0.178;2023-12-22T06:45:51;100593.09;;;12.39;100.00
43420;BME280;29017;51.514;-0.178;2023-12-22T06:48:21;100599.34;;;12.38;100.00
43420;BME280;29017;51.514;-0.178;2023-12-22T06:50:48;100606.91;;;12.41;100.00
43420;BME280;29017;51.514;-0.178;2023-12-22T06:53:16;100601.63;;;12.41;100.00
43420;BME280;29017;51.514;-0.178;2023-12-22T06:55:51;100607.75;;;12.41;100.00
43420;BME280;29017;51.514;-0.178;2023-12-22T06:58:18;100614.34;;;12.37;100.00
43420;BME280;29017;51.514;-0.178;2023-12-22T07:00:48;100607.91;;;12.40;100.00
43420;BME280;29017;51.514;-0.178;2023-12-22T07:03:15;100592.41;;;12.37;100.00
43420;BME280;29017;51.514;-0.178;2023-12-22T07:05:43;100603.97;;;12.36;100.00
43420;BME280;29017;51.514;-0.178;2023-12-22T07:08:11;100604.78;;;12.36;100.00
43420;BME280;29017;51.514;-0.178;2023-12-22T07:10:38;100612.34;;;12.39;100.00
43420;BME280;29017;51.514;-0.178;2023-12-22T07:13:06;100619.94;;;12.42;100.00
43420;BME280;29017;51.514;-0.178;2023-12-22T07:15:34;100617.31;;;12.42;99.76
43420;BME280;29017;51.514;-0.178;2023-12-22T07:18:01;100617.16;;;12.44;99.43
43420;BME280;29017;51.514;-0.178;2023-12-22T07:20:28;100629.31;;;12.45;98.04
43420;BME280;29017;51.514;-0.178;2023-12-22T07:22:55;100630.47;;;12.51;98.25
43420;BME280;29017;51.514;-0.178;2023-12-22T07:25:24;100631.97;;;12.53;98.27
43420;BME280;29017;51.514;-0.178;2023-12-22T07:27:56;100638.69;;;12.56;97.57
43420;BME280;29017;51.514;-0.178;2023-12-22T07:30:23;100634.72;;;12.60;97.52
43420;BME280;29017;51.514;-0.178;2023-12-22T07:32:50;100647.75;;;12.61;97.37
43420;BME280;29017;51.514;-0.178;2023-12-22T07:35:22;100644.13;;;12.62;97.27
43420;BME280;29017;51.514;-0.178;2023-12-22T07:37:49;100637.53;;;12.58;97.14
43420;BME280;29017;51.514;-0.178;2023-12-22T07:40:17;100640.81;;;12.60;97.63
43420;BME280;29017;51.514;-0.178;2023-12-22T07:42:44;100641.66;;;12.61;98.21
43420;BME280;29017;51.514;-0.178;2023-12-22T07:45:11;100643.13;;;12.63;98.49
43420;BME280;29017;51.514;-0.178;2023-12-22T07:47:38;100637.19;;;12.61;98.39
43420;BME280;29017;51.514;-0.178;2023-12-22T07:50:05;100646.75;;;12.62;98.93
43420;BME280;29017;51.514;-0.178;2023-12-22T07:52:36;100643.97;;;12.64;98.44
43420;BME280;29017;51.514;-0.178;2023-12-22T07:55:08;100650.88;;;12.65;98.24
43420;BME280;29017;51.514;-0.178;2023-12-22T07:57:38;100652.03;;;12.62;97.13
43420;BME280;29017;51.514;-0.178;2023-12-22T08:00:05;100643.28;;;12.62;97.10
43420;BME280;29017;51.514;-0.178;2023-12-22T08:02:32;100644.78;;;12.64;97.43
43420;BME280;29017;51.514;-0.178;2023-12-22T08:04:59;100654.84;;;12.61;97.40
43420;BME280;29017;51.514;-0.178;2023-12-22T08:07:26;100654.69;;;12.62;97.22
43420;BME280;29017;51.514;-0.178;2023-12-22T08:09:54;100658.31;;;12.61;96.81
43420;BME280;29017;51.514;-0.178;2023-12-22T08:12:22;100661.31;;;12.58;95.35
43420;BME280;29017;51.514;-0.178;2023-12-22T08:14:51;100663.59;;;12.61;95.19
43420;BME280;29017;51.514;-0.178;2023-12-22T08:17:18;100670.88;;;12.59;93.86
43420;BME280;29017;51.514;-0.178;2023-12-22T08:19:45;100670.03;;;12.59;93.24
43420;BME280;29017;51.514;-0.178;2023-12-22T08:22:14;100670.88;;;12.59;92.64
43420;BME280;29017;51.514;-0.178;2023-12-22T08:24:43;100681.91;;;12.63;92.15
43420;BME280;29017;51.514;-0.178;2023-12-22T08:27:10;100692.13;;;12.66;91.13
43420;BME280;29017;51.514;-0.178;2023-12-22T08:29:37;100697.06;;;12.69;91.10
43420;BME280;29017;51.514;-0.178;2023-12-22T08:32:05;100697.91;;;12.69;91.11
43420;BME280;29017;51.514;-0.178;2023-12-22T08:34:37;100696.38;;;12.75;91.33
43420;BME280;29017;51.514;-0.178;2023-12-22T08:37:04;100698.69;;;12.78;89.26
43420;BME280;29017;51.514;-0.178;2023-12-22T08:39:31;100710.53;;;12.82;89.10
43420;BME280;29017;51.514;-0.178;2023-12-22T08:41:58;100705.75;;;12.85;89.03
43420;BME280;29017;51.514;-0.178;2023-12-22T08:44:25;100703.41;;;12.91;88.25
43420;BME280;29017;51.514;-0.178;2023-12-22T08:46:52;100702.94;;;12.95;87.64
43420;BME280;29017;51.514;-0.178;2023-12-22T08:49:19;100714.28;;;12.96;87.42
43420;BME280;29017;51.514;-0.178;2023-12-22T08:51:48;100712.78;;;13.01;87.72
43420;BME280;29017;51.514;-0.178;2023-12-22T08:54:15;100723.03;;;13.04;87.21
43420;BME280;29017;51.514;-0.178;2023-12-22T08:56:42;100722.84;;;13.06;86.91
43420;BME280;29017;51.514;-0.178;2023-12-22T08:59:09;100720.19;;;13.06;86.11
43420;BME280;29017;51.514;-0.178;2023-12-22T09:01:37;100704.00;;;13.09;86.03
43420;BME280;29017;51.514;-0.178;2023-12-22T09:04:04;100720.38;;;13.12;86.02
43420;BME280;29017;51.514;-0.178;2023-12-22T09:06:33;100722.50;;;13.17;86.02
43420;BME280;29017;51.514;-0.178;2023-12-22T09:09:00;100717.22;;;13.17;85.56
43420;BME280;29017;51.514;-0.178;2023-12-22T09:11:27;100721.50;;;13.18;85.68
43420;BME280;29017;51.514;-0.178;2023-12-22T09:13:54;100724.97;;;13.18;85.92
43420;BME280;29017;51.514;-0.178;2023-12-22T09:16:23;100729.25;;;13.19;85.17
43420;BME280;29017;51.514;-0.178;2023-12-22T09:18:51;100731.72;;;13.21;85.51
43420;BME280;29017;51.514;-0.178;2023-12-22T09:21:18;100712.41;;;13.20;85.63
43420;BME280;29017;51.514;-0.178;2023-12-22T09:23:46;100728.56;;;13.25;86.84
43420;BME280;29017;51.514;-0.178;2023-12-22T09:26:26;100726.56;;;13.27;85.96
43420;BME280;29017;51.514;-0.178;2023-12-22T09:28:55;100736.50;;;13.25;85.18
43420;BME280;29017;51.514;-0.178;2023-12-22T09:31:22;100733.66;;;13.27;85.25
43420;BME280;29017;51.514;-0.178;2023-12-22T09:33:49;100743.91;;;13.30;85.85
43420;BME280;29017;51.514;-0.178;2023-12-22T09:36:16;100734.50;;;13.27;85.28
43420;BME280;29017;51.514;-0.178;2023-12-22T09:38:43;100742.09;;;13.31;84.62
43420;BME280;29017;51.514;-0.178;2023-12-22T09:41:10;100751.50;;;13.33;83.71
43420;BME280;29017;51.514;-0.178;2023-12-22T09:43:38;100757.75;;;13.32;84.11
43420;BME280;29017;51.514;-0.178;2023-12-22T09:46:08;100759.41;;;13.33;83.63
43420;BME280;29017;51.514;-0.178;2023-12-22T09:48:39;100778.75;;;13.34;83.57
43420;BME280;29017;51.514;-0.178;2023-12-22T09:51:07;100776.91;;;13.34;83.54
43420;BME280;29017;51.514;-0.178;2023-12-22T09:53:35;100777.56;;;13.36;83.84
43420;BME280;29017;51.514;-0.178;2023-12-22T09:56:05;100794.75;;;13.40;83.41
43420;BME280;29017;51.514;-0.178;2023-12-22T09:58:35;100792.41;;;13.37;82.60
43420;BME280;29017;51.514;-0.178;2023-12-22T10:01:04;100795.06;;;13.37;82.52
43420;BME280;29017;51.514;-0.178;2023-12-22T10:03:35;100786.66;;;13.34;82.52
43420;BME280;29017;51.514;-0.178;2023-12-22T10:06:03;100807.97;;;13.40;81.85
43420;BME280;29017;51.514;-0.178;2023-12-22T10:08:31;100795.91;;;13.38;82.55
43420;BME280;29017;51.514;-0.178;2023-12-22T10:10:59;100796.56;;;13.40;82.85
43420;BME280;29017;51.514;-0.178;2023-12-22T10:13:26;100797.53;;;13.39;82.86
43420;BME280;29017;51.514;-0.178;2023-12-22T10:15:55;100795.56;;;13.41;83.26
43420;BME280;29017;51.514;-0.178;2023-12-22T10:18:24;100809.25;;;13.44;82.05
43420;BME280;29017;51.514;-0.178;2023-12-22T10:20:51;100804.44;;;13.48;82.52
43420;BME280;29017;51.514;-0.178;2023-12-22T10:23:18;100805.09;;;13.50;81.42
43420;BME280;29017;51.514;-0.178;2023-12-22T10:25:46;100796.97;;;13.51;81.72
43420;BME280;29017;51.514;-0.178;2023-12-22T10:28:15;100799.63;;;13.51;81.36
43420;BME280;29017;51.514;-0.178;2023-12-22T10:30:44;100804.91;;;13.51;81.06
43420;BME280;29017;51.514;-0.178;2023-12-22T10:33:12;100791.38;;;13.54;80.64
43420;BME280;29017;51.514;-0.178;2023-12-22T10:35:41;100794.16;;;13.61;80.71
43420;BME280;29017;51.514;-0.178;2023-12-22T10:38:08;100797.59;;;13.61;80.66
43420;BME280;29017;51.514;-0.178;2023-12-22T10:40:36;100788.50;;;13.64;80.38
43420;BME280;29017;51.514;-0.178;2023-12-22T10:43:05;100788.50;;;13.64;80.12
43420;BME280;29017;51.514;-0.178;2023-12-22T10:45:33;100796.06;;;13.67;79.74
43420;BME280;29017;51.514;-0.178;2023-12-22T10:48:00;100796.75;;;13.69;80.11
43420;BME280;29017;51.514;-0.178;2023-12-22T10:50:28;100806.78;;;13.74;79.17
43420;BME280;29017;51.514;-0.178;2023-12-22T10:52:56;100807.63;;;13.74;79.12
43420;BME280;29017;51.514;-0.178;2023-12-22T10:55:27;100799.53;;;13.76;78.89
43420;BME280;29017;51.514;-0.178;2023-12-22T10:58:04;100798.03;;;13.73;78.48
43420;BME280;29017;51.514;-0.178;2023-12-22T11:00:32;100804.97;;;13.74;77.74
43420;BME280;29017;51.514;-0.178;2023-12-22T11:03:04;100813.38;;;13.78;78.22
43420;BME280;29017;51.514;-0.178;2023-12-22T11:05:37;100806.25;;;13.78;77.92
43420;BME280;29017;51.514;-0.178;2023-12-22T11:08:09;100811.38;;;13.80;77.74
43420;BME280;29017;51.514;-0.178;2023-12-22T11:10:42;100809.22;;;13.83;78.26
43420;BME280;29017;51.514;-0.178;2023-12-22T11:13:11;100815.16;;;13.85;78.14
43420;BME280;29017;51.514;-0.178;2023-12-22T11:15:42;100814.16;;;13.86;77.25
43420;BME280;29017;51.514;-0.178;2023-12-22T11:18:10;100800.28;;;13.84;76.73
43420;BME280;29017;51.514;-0.178;2023-12-22T11:20:37;100819.78;;;13.83;76.60
43420;BME280;29017;51.514;-0.178;2023-12-22T11:23:05;100810.03;;;13.84;76.47
43420;BME280;29017;51.514;-0.178;2023-12-22T11:25:34;100813.50;;;13.84;76.65
43420;BME280;29017;51.514;-0.178;2023-12-22T11:28:03;100809.22;;;13.83;76.76
43420;BME280;29017;51.514;-0.178;2023-12-22T11:30:38;100814.97;;;13.87;76.86
43420;BME280;29017;51.514;-0.178;2023-12-22T11:33:06;100809.50;;;13.88;76.78
43420;BME280;29017;51.514;-0.178;2023-12-22T11:35:33;100805.88;;;13.89;76.17
43420;BME280;29017;51.514;-0.178;2023-12-22T11:38:02;100791.66;;;13.90;76.40
43420;BME280;29017;51.514;-0.178;2023-12-22T11:40:30;100805.88;;;13.89;77.13
43420;BME280;29017;51.514;-0.178;2023-12-22T11:42:58;100804.38;;;13.87;75.71
43420;BME280;29017;51.514;-0.178;2023-12-22T11:45:30;100809.50;;;13.88;75.48
43420;BME280;29017;51.514;-0.178;2023-12-22T11:48:04;100800.59;;;13.89;75.23
43420;BME280;29017;51.514;-0.178;2023-12-22T11:50:32;100812.00;;;13.90;75.18
43420;BME280;29017;51.514;-0.178;2023-12-22T11:56:00;100789.84;;;13.91;74.31
43420;BME280;29017;51.514;-0.178;2023-12-22T12:01:07;100803.53;;;13.94;76.08
43420;BME280;29017;51.514;-0.178;2023-12-22T12:03:36;100808.47;;;13.97;74.35
43420;BME280;29017;51.514;-0.178;2023-12-22T12:08:40;100790.91;;;14.04;75.03
43420;BME280;29017;51.514;-0.178;2023-12-22T12:11:08;100801.47;;;14.04;75.11
43420;BME280;29017;51.514;-0.178;2023-12-22T12:13:36;100801.31;;;14.06;74.99
43420;BME280;29017;51.514;-0.178;2023-12-22T12:16:07;100790.72;;;14.06;75.80
43420;BME280;29017;51.514;-0.178;2023-12-22T12:18:34;100796.03;;;14.06;75.28
43420;BME280;29017;51.514;-0.178;2023-12-22T12:21:01;100801.19;;;13.99;74.49
43420;BME280;29017;51.514;-0.178;2023-12-22T12:23:29;100789.94;;;13.97;74.36
43420;BME280;29017;51.514;-0.178;2023-12-22T12:25:57;100786.97;;;14.00;73.93
43420;BME280;29017;51.514;-0.178;2023-12-22T12:28:25;100789.41;;;14.02;74.52
43420;BME280;29017;51.514;-0.178;2023-12-22T12:30:58;100783.31;;;14.01;74.83
43420;BME280;29017;51.514;-0.178;2023-12-22T12:33:30;100792.25;;;14.00;74.05
43420;BME280;29017;51.514;-0.178;2023-12-22T12:35:59;100791.59;;;13.98;73.81
43420;BME280;29017;51.514;-0.178;2023-12-22T12:38:36;100790.75;;;13.98;74.19
43420;BME280;29017;51.514;-0.178;2023-12-22T12:41:04;100786.00;;;13.93;73.00
43420;BME280;29017;51.514;-0.178;2023-12-22T12:43:34;100793.47;;;13.90;73.59
43420;BME280;29017;51.514;-0.178;2023-12-22T12:46:05;100802.56;;;13.87;74.96
43420;BME280;29017;51.514;-0.178;2023-12-22T12:48:34;100792.81;;;13.88;74.75
43420;BME280;29017;51.514;-0.178;2023-12-22T12:51:04;100800.94;;;13.86;74.63
43420;BME280;29017;51.514;-0.178;2023-12-22T12:53:31;100795.00;;;13.84;74.24